Detall de PIREP

Printer-friendly versionPDF version

[2013/01/31 10:32:00]
Flight IATA:CT0003
Pilot Number:042
Company ICAO:CAT
Aircraft Type:C750/F
PAX:2
Departing Airport: LIEA
Destination Airport: LIRF
Alternate Airport:LIRN
Online: VATSIM
Route:MINKA UL5 VALMA
Flight Level:F230
No Slew and time accel
No pause
Crash detect
Detect pilot in Cockpit between each 30 and 45 minutes
10:32 Zero fuel Weight: 22920 Lbs, Fuel Weight: 12985 Lbs
10:32 VATSIM:LIEA 310950Z 33007KT 290V360 CAVOK 16/07 Q1027
10:32 VATSIM:LIRF 310950Z 31005KT 290V350 CAVOK 15/10 Q1022 NOSIG
10:32 VOICE CATALONIAN
10:39 Parking Brakes off
10:53 Take-off
10:53 Take off Weight: 35728 Lbs
10:53 Wind: 000º @ 000 Knots Heading: 023º
10:53 POS N40º 38´ 05´´ E008º 17´ 33´´
10:53 Gear Up: 161 Knots
10:53 Flaps:4 at 161 Knots
10:53 Flaps:3 at 155 Knots
10:53 Flaps:2 at 176 Knots
10:53 Flaps:0 at 180 Knots
11:02 TOC
11:02 Fuel Weight: 12351 Lb
11:08 Wind:311º@075 Knots Heading: 060º Ground Speed: 494 Knots Altitude 23320 ft
11:13 TOD
11:13 Fuel Weight: 11975 Lb
11:23 Wind:327º@016 Knots Heading: 065º Ground Speed: 244 Knots Altitude 5793 ft
11:27 Flaps:2 at 170 Knots
11:27 Flaps:3 at 168 Knots
11:38 Wind:099º@010 Knots Heading: 345º Ground Speed: 158 Knots Altitude 2791 ft
11:39 Gear Down: 155 Knots
11:39 Flaps:5 at 156 Knots
11:43 TouchDown:Rate -109 ft/min Speed: 122 Knots
11:43 VATSIM:LIRF 311120Z 29013KT CAVOK 15/11 Q1022 NOSIG
11:43 Land
11:43 Wind:029º@004 Knots
11:43 Heading: 340º
11:43 Flight Duration: 00:50
11:43 Landing Weight: 34504 Lbs
11:43 POS N41º 47´ 47´´ E012º 14´ 02´´
11:49 Parking brakes on
11:49 Block to Block Duration: 01:10
11:49 Final Fuel: 11503 Lbls
11:49 Spent Fuel: 1481 Lbls
11:49 Flight Length: 187 NM
11:49 TOD Land Length: 44 NM

Exportar CSV

Powered by Drupal - Modified by Danger4k